createdAt,value
2023-04-18T00:01:25.544Z,7.34
2023-04-18T00:06:27.055Z,7.44
2023-04-18T00:11:28.564Z,7.50
2023-04-18T00:16:30.528Z,7.54
2023-04-18T00:21:32.259Z,7.64
2023-04-18T00:26:33.642Z,7.72
2023-04-18T00:31:36.174Z,7.55
2023-04-18T00:36:37.616Z,7.55
2023-04-18T00:41:39.178Z,7.64
2023-04-18T00:46:40.687Z,7.65
2023-04-18T00:51:42.801Z,7.74
2023-04-18T00:56:47.832Z,7.77
2023-04-18T01:01:50.208Z,7.75
2023-04-18T01:06:51.770Z,7.78
2023-04-18T01:11:53.250Z,7.88
2023-04-18T01:16:54.729Z,7.93
2023-04-18T01:21:56.222Z,7.90
2023-04-18T01:26:58.775Z,7.89
2023-04-18T01:32:02.643Z,7.97
2023-04-18T01:37:04.127Z,7.94
2023-04-18T01:42:07.809Z,7.96
2023-04-18T01:47:09.246Z,7.97
2023-04-18T01:52:14.054Z,7.99
2023-04-18T01:57:15.601Z,7.91
2023-04-18T02:02:17.158Z,7.84
2023-04-18T02:07:18.649Z,7.97
2023-04-18T02:12:20.309Z,7.81
2023-04-18T02:17:23.449Z,7.66
2023-04-18T02:22:25.247Z,7.64
2023-04-18T02:27:26.751Z,7.79
2023-04-18T02:32:31.527Z,7.74
2023-04-18T02:37:33.001Z,7.75
2023-04-18T02:42:34.441Z,7.71
2023-04-18T02:47:47.040Z,7.68
2023-04-18T02:52:56.147Z,7.61
2023-04-18T02:58:02.427Z,7.68
2023-04-18T03:03:18.935Z,7.61
2023-04-18T03:08:30.368Z,7.61
2023-04-18T03:13:33.049Z,7.39
2023-04-18T03:18:34.777Z,7.64
2023-04-18T03:23:37.434Z,7.69
2023-04-18T03:28:40.742Z,7.54
2023-04-18T03:33:45.488Z,7.41
2023-04-18T03:38:46.967Z,7.40
2023-04-18T03:43:48.593Z,7.35
2023-04-18T03:48:50.447Z,7.12
2023-04-18T03:53:51.944Z,7.20
2023-04-18T03:58:53.584Z,7.10
2023-04-18T04:03:56.950Z,7.03
2023-04-18T04:08:59.040Z,7.03
2023-04-18T04:14:02.865Z,7.09
2023-04-18T04:19:11.406Z,7.00
2023-04-18T04:24:20.453Z,7.21
2023-04-18T04:29:23.742Z,7.25
2023-04-18T04:34:26.764Z,6.99
2023-04-18T04:39:28.875Z,7.22
2023-04-18T04:44:50.559Z,7.11
2023-04-18T04:49:52.609Z,6.97
2023-04-18T04:54:54.050Z,6.89
2023-04-18T04:59:58.011Z,6.96
2023-04-18T05:04:59.760Z,7.01
2023-04-18T05:10:01.210Z,6.90
2023-04-18T05:15:02.954Z,6.88
2023-04-18T05:20:05.684Z,6.98
2023-04-18T05:25:07.865Z,6.88
2023-04-18T05:30:09.679Z,6.95
2023-04-18T05:35:11.093Z,6.91
2023-04-18T05:40:13.227Z,6.71
2023-04-18T05:45:14.818Z,6.83
2023-04-18T05:50:16.319Z,6.63
2023-04-18T05:55:18.120Z,6.46
2023-04-18T06:00:19.922Z,6.50
2023-04-18T06:05:21.579Z,6.47
2023-04-18T06:10:23.217Z,6.65
2023-04-18T06:15:24.915Z,6.90
2023-04-18T06:20:26.404Z,6.45
2023-04-18T06:25:27.846Z,6.58
2023-04-18T06:30:29.286Z,6.57
2023-04-18T06:35:31.282Z,6.50
2023-04-18T06:40:32.785Z,6.56
2023-04-18T06:45:34.873Z,6.63
2023-04-18T06:50:36.347Z,6.36
2023-04-18T06:55:37.852Z,6.54
2023-04-18T07:00:39.812Z,6.74
2023-04-18T07:05:41.429Z,6.65
2023-04-18T07:10:42.935Z,6.79
2023-04-18T07:15:44.365Z,6.70
2023-04-18T07:20:45.795Z,6.68
2023-04-18T07:25:47.255Z,6.91
2023-04-18T07:30:48.705Z,7.03
2023-04-18T07:35:52.696Z,6.91
2023-04-18T07:40:58.616Z,6.71
2023-04-18T07:46:00.637Z,6.79
2023-04-18T07:51:02.802Z,6.79
2023-04-18T07:56:04.365Z,6.92
2023-04-18T08:01:06.966Z,6.80
2023-04-18T08:06:08.766Z,6.92
2023-04-18T08:11:11.083Z,6.90
2023-04-18T08:16:14.188Z,6.95
2023-04-18T08:21:41.935Z,7.11
2023-04-18T08:26:45.925Z,7.23
2023-04-18T08:31:47.723Z,7.33
2023-04-18T08:36:50.890Z,7.29
2023-04-18T08:42:00.837Z,7.39
2023-04-18T08:47:02.998Z,7.32
2023-04-18T08:52:12.319Z,7.30
2023-04-18T08:57:23.959Z,7.35
2023-04-18T09:02:42.329Z,7.56
2023-04-18T09:14:24.791Z,7.73
2023-04-18T09:19:26.369Z,7.65
2023-04-18T09:24:28.683Z,7.83
2023-04-18T09:29:47.461Z,7.83
2023-04-18T09:34:49.051Z,7.92
2023-04-18T09:39:53.481Z,7.87
2023-04-18T09:45:05.273Z,7.92
2023-04-18T09:50:09.260Z,7.96
2023-04-18T09:55:17.260Z,8.02
2023-04-18T10:00:23.753Z,8.10
2023-04-18T10:05:32.203Z,7.99
2023-04-18T10:10:33.948Z,7.77
2023-04-18T10:15:35.634Z,7.80
2023-04-18T10:20:40.476Z,7.83
2023-04-18T10:31:57.268Z,8.04
2023-04-18T10:37:06.004Z,8.22
2023-04-18T10:42:10.733Z,8.04
2023-04-18T10:47:15.411Z,8.20
2023-04-18T10:52:19.792Z,8.23
2023-04-18T10:57:21.618Z,8.17
2023-04-18T11:02:29.954Z,8.27
2023-04-18T11:07:49.102Z,8.12
2023-04-18T11:12:51.437Z,8.19
2023-04-18T11:18:37.122Z,8.26
2023-04-18T11:23:38.588Z,8.18
2023-04-18T11:28:41.590Z,8.22
2023-04-18T11:33:48.300Z,8.27
2023-04-18T11:38:49.952Z,8.29
2023-04-18T11:43:51.474Z,8.31
2023-04-18T11:48:53.272Z,8.36
2023-04-18T11:53:54.916Z,8.38
2023-04-18T11:58:56.586Z,8.44
2023-04-18T12:04:04.017Z,8.31
2023-04-18T12:09:13.812Z,8.34
2023-04-18T12:14:24.857Z,8.39
2023-04-18T12:19:28.382Z,8.47
2023-04-18T12:24:45.027Z,8.46
2023-04-18T12:29:46.611Z,8.53
2023-04-18T12:34:51.495Z,8.57
2023-04-18T12:40:05.108Z,8.56
2023-04-18T12:45:09.439Z,8.55
2023-04-18T12:57:04.036Z,8.60
2023-04-18T13:02:05.697Z,8.62
2023-04-18T13:07:09.668Z,8.56
2023-04-18T13:12:11.737Z,8.69
2023-04-18T13:17:15.492Z,8.68
2023-04-18T13:22:22.297Z,8.60
2023-04-18T13:32:52.146Z,8.68
2023-04-18T13:37:54.154Z,8.72
2023-04-18T13:42:55.587Z,8.73
2023-04-18T13:47:57.026Z,8.68
2023-04-18T13:52:58.523Z,8.68
2023-04-18T13:58:00.015Z,8.67
2023-04-18T14:03:01.717Z,8.63
2023-04-18T14:08:03.959Z,8.62
2023-04-18T14:13:05.661Z,8.60
2023-04-18T14:18:07.088Z,8.68
2023-04-18T14:23:08.518Z,8.75
2023-04-18T14:28:11.807Z,8.78
2023-04-18T14:33:13.246Z,8.78
2023-04-18T14:38:15.420Z,8.82
2023-04-18T14:43:16.852Z,8.82
2023-04-18T14:48:18.351Z,8.81
2023-04-18T14:53:19.872Z,8.83
2023-04-18T14:58:21.569Z,8.88
2023-04-18T15:03:23.338Z,8.89
2023-04-18T15:08:25.163Z,8.92
2023-04-18T15:13:26.612Z,8.94
2023-04-18T15:18:28.203Z,8.92
2023-04-18T15:23:29.612Z,8.93
2023-04-18T15:28:31.174Z,8.91
2023-04-18T15:33:32.916Z,8.91
2023-04-18T15:38:34.421Z,8.90
2023-04-18T15:43:35.888Z,8.92
2023-04-18T15:48:37.383Z,8.90
2023-04-18T15:53:38.804Z,8.91
2023-04-18T15:58:40.219Z,8.91
2023-04-18T16:03:42.455Z,8.97
2023-04-18T16:08:43.901Z,9.00
2023-04-18T16:13:45.435Z,8.97
2023-04-18T16:18:46.933Z,8.97
2023-04-18T16:23:48.828Z,9.01
2023-04-18T16:28:50.866Z,8.98
2023-04-18T16:33:52.743Z,9.00
2023-04-18T16:38:54.378Z,8.93
2023-04-18T16:43:55.799Z,8.93
2023-04-18T16:48:57.372Z,8.93
2023-04-18T16:53:59.063Z,8.93
2023-04-18T16:59:00.420Z,8.93
2023-04-18T17:04:02.465Z,8.91
2023-04-18T17:09:06.249Z,8.88
2023-04-18T17:14:08.739Z,8.92
2023-04-18T17:19:10.461Z,8.90
2023-04-18T17:24:11.964Z,8.87
2023-04-18T17:29:13.571Z,8.86
2023-04-18T17:34:15.227Z,8.83
2023-04-18T17:39:16.910Z,8.82
2023-04-18T17:44:18.293Z,8.82
2023-04-18T17:49:20.815Z,8.80
2023-04-18T17:54:22.252Z,8.78
2023-04-18T17:59:23.838Z,8.80
2023-04-18T18:04:26.711Z,8.78
2023-04-18T18:09:28.412Z,8.74
2023-04-18T18:14:29.902Z,8.76
2023-04-18T18:19:31.536Z,8.69
2023-04-18T18:24:32.909Z,8.79
2023-04-18T18:29:34.351Z,8.77
2023-04-18T18:34:36.137Z,8.77
2023-04-18T18:39:37.666Z,8.81
2023-04-18T18:44:39.103Z,8.77
2023-04-18T18:49:40.728Z,8.82
2023-04-18T18:54:42.183Z,8.76
2023-04-18T18:59:43.584Z,8.80
2023-04-18T19:04:45.401Z,8.80
2023-04-18T19:09:47.040Z,8.79
2023-04-18T19:14:49.442Z,8.82
2023-04-18T19:19:51.950Z,8.91
2023-04-18T19:24:53.417Z,8.86
2023-04-18T19:29:54.893Z,8.88
2023-04-18T19:34:56.325Z,8.93
2023-04-18T19:39:57.746Z,8.91
2023-04-18T19:45:00.232Z,8.90
2023-04-18T19:50:01.724Z,8.88
2023-04-18T19:55:03.160Z,8.90
2023-04-18T20:00:09.711Z,8.83
2023-04-18T20:05:14.017Z,8.88
2023-04-18T20:10:15.429Z,8.84
2023-04-18T20:15:16.983Z,8.87
2023-04-18T20:20:18.315Z,8.87
2023-04-18T20:25:20.319Z,8.89
2023-04-18T20:30:22.103Z,8.87
2023-04-18T20:35:23.742Z,8.90
2023-04-18T20:40:25.551Z,8.85
2023-04-18T20:45:27.773Z,8.88
2023-04-18T20:50:29.348Z,8.89
2023-04-18T20:55:31.035Z,8.87
2023-04-18T21:00:32.367Z,8.91
2023-04-18T21:05:33.790Z,8.89
2023-04-18T21:10:35.264Z,8.89
2023-04-18T21:15:36.744Z,8.86
2023-04-18T21:20:38.164Z,8.82
2023-04-18T21:25:39.574Z,8.79
2023-04-18T21:30:41.091Z,8.76
2023-04-18T21:35:42.613Z,8.73
2023-04-18T21:40:44.046Z,8.72
2023-04-18T21:45:46.208Z,8.72
2023-04-18T21:50:53.943Z,8.66
2023-04-18T21:55:55.400Z,8.66
2023-04-18T22:00:56.965Z,8.63
2023-04-18T22:05:58.474Z,8.60
2023-04-18T22:11:00.286Z,8.52
2023-04-18T22:16:03.099Z,8.52
2023-04-18T22:21:04.786Z,8.47
2023-04-18T22:26:06.208Z,8.41
2023-04-18T22:31:07.835Z,8.45
2023-04-18T22:36:09.206Z,8.43
2023-04-18T22:41:10.699Z,8.43
2023-04-18T22:46:12.175Z,8.46
2023-04-18T22:51:18.188Z,8.46
2023-04-18T22:56:19.790Z,8.38
2023-04-18T23:01:21.180Z,8.34
2023-04-18T23:06:23.068Z,8.37
2023-04-18T23:11:24.894Z,8.37
2023-04-18T23:16:26.499Z,8.36
2023-04-18T23:21:28.532Z,8.38
2023-04-18T23:26:29.932Z,8.38
2023-04-18T23:31:34.276Z,8.33
2023-04-18T23:36:36.861Z,8.32
2023-04-18T23:41:38.307Z,8.32
2023-04-18T23:46:39.836Z,8.33
2023-04-18T23:51:41.240Z,8.27
2023-04-18T23:56:42.670Z,8.30
